• Join FlightAware (Why Join?)
  • Login
  • US Flag 
12:20AM EST


 

Airport Tracker/Info


-or-


 

Live Flight TrackerFlight Track Log ✈ ASQ4209 ✈ 12-Jun-2013 ✈ KALB - KCLE

Flight Track Log - Related Links

Times and Time Zones

All times are in EDT time to prevent confusion due to time zone crossing. See the ASQ4209 flight status page for this flight to view local times or setup timezone preferences in your user account.

Time Position Orientation Groundspeed Altitude Reporting Facility
EDT Latitude Longitude Course Direction KTS MPH feet Rate Location/Type
02:52PM 42.8086 -73.8381 330° Northwest 196 226 3,500  Level Boston Center
02:53PM 42.8578 -73.9131 312° West 241 277 6,200 2,880 Climbing Boston Center
02:54PM 42.8000 -74.1510 270° West  Level FlightAware Approximate
02:54PM 42.9025 -73.9878 309° West 236 272 9,900  Level Boston Center
02:55PM 42.8207 -74.2701 285° West  Level FlightAware Approximate
02:55PM 42.9475 -74.0511 314° West 242 278 11,700  Level Boston Center
02:56PM 42.8427 -74.3894 283° West  Level FlightAware Approximate
02:56PM 43.0089 -74.1381 314° West 272 313 13,500  Level Boston Center
02:57PM 43.0294 -74.2778 281° West 305 351 15,500 1,740 Climbing Boston Center
02:58PM 43.0400 -74.4058 276° West 326 375 17,000 1,860 Climbing Boston Center
03:00PM 43.0517 -74.5597 276° West 342 394 19,600 1,920 Climbing Boston Center
03:01PM 43.0597 -74.6850 275° West 342 394 21,300 1,800 Climbing Boston Center
03:02PM 43.0681 -74.7906 276° West 330 380 23,200 1,860 Climbing Boston Center
03:03PM 43.0761 -74.9103 275° West 330 380 25,100 1,740 Climbing Boston Center
03:04PM 43.0839 -75.0272 275° West 325 374 26,700 1,080 Climbing Boston Center
03:05PM 43.0933 -75.1528 276° West 325 374 27,300 1,140 Climbing Boston Center
03:06PM 43.1028 -75.2811 276° West 336 387 29,000 1,740 Climbing Boston Center
03:07PM 43.1081 -75.4064 273° West 336 387 30,800 1,440 Climbing Boston Center
03:08PM 43.1172 -75.5264 276° West 331 381 31,900 600 Climbing Boston Center
03:09PM 43.1283 -75.6578 277° West 338 389 32,000  Climbing Boston Center
03:10PM 43.1367 -75.8006 275° West 360 414 32,000  Level Boston Center
03:11PM 43.1447 -75.9433 274° West 372 428 32,000  Level Boston Center
03:12PM 43.1547 -76.0892 275° West 386 444 32,000  Level Boston Center
03:13PM 43.1522 -76.2372 269° West 391 450 32,000  Level Boston Center
03:15PM 43.0508 -76.5569 247° West 400 460 32,000  Level Cleveland Center
03:16PM 43.0036 -76.6992 246° West 411 473 32,000  Level Cleveland Center
03:17PM 42.9619 -76.8294 246° West 411 473 32,000  Level Cleveland Center
03:18PM 42.9183 -76.9597 245° Southwest 417 480 32,000  Level Cleveland Center
03:19PM 42.8528 -77.1336 243° Southwest 432 497 32,000  Level Cleveland Center
03:20PM 42.7942 -77.2753 241° Southwest 438 504 32,000  Level Cleveland Center
03:21PM 42.7336 -77.4172 240° Southwest 438 504 32,000  Level Cleveland Center
03:22PM 42.6750 -77.5614 241° Southwest 438 504 32,000  Level Cleveland Center
03:23PM 42.6117 -77.6997 238° Southwest 438 504 32,000  Level Cleveland Center
03:24PM 42.5567 -77.8292 240° Southwest 433 498 32,000  Level Cleveland Center
03:25PM 42.4992 -77.9642 240° Southwest 433 498 32,000  Level Cleveland Center
03:26PM 42.4378 -78.1044 239° Southwest 433 498 32,000  Level Cleveland Center
03:27PM 42.3719 -78.2533 239° Southwest 433 498 32,000  Level Cleveland Center
03:28PM 42.3161 -78.3817 240° Southwest 433 498 32,000  Level Cleveland Center
03:29PM 42.2542 -78.5186 239° Southwest 433 498 32,000  Level Cleveland Center
03:30PM 42.1939 -78.6578 240° Southwest 433 498 32,000  Level Cleveland Center
03:31PM 42.1317 -78.7942 238° Southwest 433 498 32,000 -300 Level Cleveland Center
03:32PM 42.0692 -78.9356 239° Southwest 433 498 31,400 -1,200 Descending Cleveland Center
03:33PM 42.0044 -79.0769 238° Southwest 433 498 29,600 -1,740 Descending Cleveland Center
03:34PM 41.9456 -79.2014 238° Southwest 423 487 28,000 -1,920 Descending Cleveland Center
03:35PM 41.8844 -79.3392 239° Southwest 411 473 25,800 -2,100 Descending Cleveland Center
03:36PM 41.8314 -79.4572 239° Southwest 398 458 23,900 -1,800 Descending Cleveland Center
03:37PM 41.7764 -79.5753 238° Southwest 386 444 22,300 -960 Descending Cleveland Center
03:38PM 41.7292 -79.6844 240° Southwest 386 444 22,000 -180 Descending Cleveland Center
03:39PM 41.6717 -79.7992 236° Southwest 381 438 22,000  Level Cleveland Center
03:40PM 41.6142 -79.9278 239° Southwest 373 429 22,000  Level Cleveland Center
03:41PM 41.5606 -80.0392 237° Southwest 367 422 22,000  Level Cleveland Center
03:42PM 41.5089 -80.1506 238° Southwest 367 422 22,000  Level Cleveland Center
03:43PM 41.4656 -80.2672 244° Southwest 367 422 22,000  Level Cleveland Center
03:44PM 41.4658 -80.3919 270° West 335 386 22,000 -720 Level Cleveland Center
03:45PM 41.4764 -80.5167 276° West 340 391 20,600 -1,740 Descending Cleveland Center
03:46PM 41.4847 -80.6442 275° West 355 409 18,600 -2,100 Descending Cleveland Center
03:47PM 41.4928 -80.7633 275° West 334 384 16,500 -1,980 Descending Cleveland Center
03:48PM 41.4989 -80.8797 274° West 329 379 14,700 -1,920 Descending Cleveland Center
03:48PM 41.5028 -80.9631 274° West 320 368 13,400 -1,920 Descending Cleveland Center
03:49PM 41.5047 -80.9878 276° West 318 366 12,900 -2,040 Descending Cleveland Center
03:50PM 41.5128 -81.1072 275° West 316 364 10,700 -1,440 Descending Cleveland Center
03:51PM 41.5142 -81.2153 271° West 282 325 10,000 -780 Descending Cleveland Center
03:52PM 41.5158 -81.3125 271° West 248 285 9,200 -1,320 Descending Cleveland Center
03:53PM 41.5172 -81.3983 271° West 251 289 7,400 -1,860 Descending Cleveland Center
03:54PM 41.5164 -81.4900 269° West 251 289 5,500 -1,680 Descending Cleveland Center
03:55PM 41.5178 -81.5925 271° West 249 287 4,100 -900 Descending Cleveland Center
03:56PM 41.5172 -81.6647 269° West 251 289 3,800 -600 Descending Cleveland Center
03:57PM 41.4894 -81.7308 241° Southwest 220 253 3,000 -840 Descending Cleveland Center